Time;durP1;ratioP1;P1;durP2;ratioP2;P2;SDS_P1;SDS_P2;PMS_P1;PMS_P2;Temp;Humidity;BMP_temperature;BMP_pressure;BME280_temperature;BME280_humidity;BME280_pressure;Samples;Min_cycle;Max_cycle;Signal;HPM_P1;HPM_P2
2023/12/03 00:01:14;;;;;;;43.80;21.40;;;2.30;99.90;;;;;;4148485;28;20077;-72
2023/12/03 00:03:15;;;;;;;44.45;20.92;;;2.30;99.90;;;;;;4170367;28;20103;-73
2023/12/03 00:05:15;;;;;;;41.05;20.02;;;2.20;99.90;;;;;;4166914;28;20501;-72
2023/12/03 00:07:16;;;;;;;45.92;21.77;;;2.30;99.90;;;;;;4171591;28;20522;-72
2023/12/03 00:09:17;;;;;;;40.72;19.85;;;2.20;99.90;;;;;;4156932;28;20040;-72
2023/12/03 00:11:17;;;;;;;42.35;21.83;;;2.20;99.90;;;;;;4153898;28;20040;-72
2023/12/03 00:13:18;;;;;;;46.58;21.63;;;2.30;99.90;;;;;;4162654;28;20061;-72
2023/12/03 00:15:19;;;;;;;43.63;20.55;;;2.20;99.90;;;;;;4167732;28;20048;-72
2023/12/03 00:17:19;;;;;;;42.47;21.30;;;2.20;99.90;;;;;;4170824;28;20033;-73
2023/12/03 00:19:20;;;;;;;46.35;22.40;;;2.30;99.90;;;;;;4168632;28;20033;-72
2023/12/03 00:21:20;;;;;;;43.13;20.73;;;2.20;99.90;;;;;;4167928;28;20067;-72
2023/12/03 00:23:21;;;;;;;45.92;22.30;;;2.30;99.90;;;;;;4173092;28;20483;-72
2023/12/03 00:25:22;;;;;;;43.28;22.30;;;2.30;99.90;;;;;;4170779;28;20056;-72
2023/12/03 00:27:22;;;;;;;50.60;23.02;;;2.30;99.90;;;;;;4172093;28;20129;-72
2023/12/03 00:29:23;;;;;;;45.55;22.80;;;2.30;99.90;;;;;;4171150;28;20048;-71
2023/12/03 00:31:27;;;;;;;49.47;23.00;;;2.30;99.90;;;;;;4171021;28;20029;-72
2023/12/03 00:33:27;;;;;;;44.72;21.27;;;2.30;99.90;;;;;;4172837;28;20029;-72
2023/12/03 00:35:28;;;;;;;48.28;22.50;;;2.30;99.90;;;;;;4166298;28;20059;-72
2023/12/03 00:37:28;;;;;;;41.53;21.02;;;2.40;99.90;;;;;;4172791;28;20036;-72
2023/12/03 00:39:29;;;;;;;47.70;22.05;;;2.40;99.90;;;;;;4172377;28;20044;-72
2023/12/03 00:41:29;;;;;;;50.05;22.83;;;2.40;99.90;;;;;;4171833;28;20072;-72
2023/12/03 00:43:30;;;;;;;46.47;22.95;;;2.40;99.90;;;;;;4154546;28;20037;-72
2023/12/03 00:45:31;;;;;;;42.42;20.10;;;2.30;99.90;;;;;;4164766;28;20034;-72
2023/12/03 00:47:31;;;;;;;45.05;22.58;;;2.40;99.90;;;;;;4166183;28;20483;-72
2023/12/03 00:49:32;;;;;;;51.58;23.92;;;2.40;99.90;;;;;;4169069;28;20090;-73
2023/12/03 00:51:32;;;;;;;49.00;23.27;;;2.40;99.90;;;;;;4173628;28;20025;-71
2023/12/03 00:53:33;;;;;;;49.30;23.55;;;2.40;99.90;;;;;;4171188;28;20041;-72
2023/12/03 00:55:34;;;;;;;43.33;21.23;;;2.40;99.90;;;;;;4147837;28;20037;-72
2023/12/03 00:57:34;;;;;;;44.70;21.70;;;2.40;99.90;;;;;;4165109;28;20032;-72
2023/12/03 00:59:35;;;;;;;48.00;22.90;;;2.40;99.90;;;;;;4172508;28;20032;-73
2023/12/03 01:01:36;;;;;;;49.33;24.63;;;2.50;99.90;;;;;;4170075;28;20479;-69
2023/12/03 01:03:36;;;;;;;50.90;24.45;;;2.50;99.90;;;;;;4164995;28;20036;-70
2023/12/03 01:05:37;;;;;;;51.92;24.92;;;2.50;99.90;;;;;;4168996;28;20071;-68
2023/12/03 01:07:37;;;;;;;54.65;25.00;;;2.50;99.90;;;;;;4172975;28;20052;-68
2023/12/03 01:09:38;;;;;;;47.63;22.55;;;2.50;99.90;;;;;;4151783;28;20036;-71
2023/12/03 01:11:40;;;;;;;39.08;21.08;;;2.50;99.90;;;;;;4164310;28;20438;-68
2023/12/03 01:13:41;;;;;;;51.72;24.05;;;2.50;99.90;;;;;;4147290;28;20678;-69
2023/12/03 01:15:44;;;;;;;52.10;24.55;;;2.50;99.90;;;;;;4150832;28;20030;-68
2023/12/03 01:17:44;;;;;;;55.20;25.17;;;2.50;99.90;;;;;;4171663;28;20028;-69
2023/12/03 01:19:45;;;;;;;52.70;26.20;;;2.50;99.90;;;;;;4135876;28;20022;-68
2023/12/03 01:21:46;;;;;;;50.60;24.50;;;2.50;99.90;;;;;;4168518;28;20083;-68
2023/12/03 01:23:46;;;;;;;51.33;23.60;;;2.50;99.90;;;;;;4172708;28;20112;-71
2023/12/03 01:25:47;;;;;;;51.15;25.35;;;2.50;99.90;;;;;;4144971;28;20045;-70
2023/12/03 01:27:47;;;;;;;48.08;23.10;;;2.50;99.90;;;;;;4165454;28;20052;-69
2023/12/03 01:29:48;;;;;;;51.17;24.85;;;2.50;99.90;;;;;;4163133;28;20088;-68
2023/12/03 01:31:49;;;;;;;51.15;23.77;;;2.60;99.90;;;;;;4145871;28;20049;-71
2023/12/03 01:33:49;;;;;;;47.30;23.67;;;2.60;99.90;;;;;;4167693;28;20403;-71
2023/12/03 01:35:50;;;;;;;50.15;24.38;;;2.60;99.90;;;;;;4164648;28;21557;-72
2023/12/03 01:37:51;;;;;;;49.45;23.42;;;2.60;99.90;;;;;;4169571;28;20383;-73
2023/12/03 01:39:51;;;;;;;46.17;22.30;;;2.60;99.90;;;;;;4167790;28;20566;-73
2023/12/03 01:41:52;;;;;;;48.20;23.10;;;2.60;99.90;;;;;;4169277;28;20080;-72
2023/12/03 01:43:54;;;;;;;44.08;21.13;;;2.60;99.90;;;;;;4166146;28;20609;-72
2023/12/03 01:45:54;;;;;;;49.42;24.25;;;2.60;99.90;;;;;;4149985;28;20034;-72
2023/12/03 01:47:56;;;;;;;49.72;23.77;;;2.60;99.90;;;;;;4172034;28;20429;-72
2023/12/03 01:50:04;;;;;;;47.83;22.38;;;2.70;99.90;;;;;;4172956;28;20537;-72
2023/12/03 01:52:05;;;;;;;50.00;23.75;;;2.70;99.90;;;;;;4166541;28;20025;-73
2023/12/03 01:54:06;;;;;;;44.38;21.50;;;2.70;99.90;;;;;;4167686;28;20029;-73
2023/12/03 01:56:09;;;;;;;48.20;22.25;;;2.70;99.90;;;;;;4152439;28;20064;-72
2023/12/03 01:58:10;;;;;;;;;;;2.70;99.90;;;;;;4149973;28;20037;-73
2023/12/03 02:00:11;;;;;;;45.88;22.95;;;2.70;99.90;;;;;;4167844;28;20939;-72
2023/12/03 02:02:11;;;;;;;46.97;23.30;;;2.70;99.90;;;;;;4154172;28;20064;-73
2023/12/03 02:04:12;;;;;;;41.78;20.80;;;2.70;99.90;;;;;;4166370;28;20029;-73
2023/12/03 02:06:13;;;;;;;42.92;20.52;;;2.70;99.90;;;;;;4168123;28;20033;-73
2023/12/03 02:08:13;;;;;;;43.53;22.98;;;2.70;99.90;;;;;;4167040;28;20041;-72
2023/12/03 02:10:14;;;;;;;44.33;22.88;;;2.70;99.90;;;;;;4142078;28;20069;-72
2023/12/03 02:12:14;;;;;;;41.25;21.00;;;2.70;99.90;;;;;;4139153;28;20116;-72
2023/12/03 02:14:15;;;;;;;45.17;22.48;;;2.80;99.90;;;;;;4165915;28;20025;-72
2023/12/03 02:16:16;;;;;;;46.08;22.52;;;2.70;99.90;;;;;;4163795;28;20847;-73
2023/12/03 02:18:17;;;;;;;46.42;20.55;;;2.70;99.90;;;;;;4148618;28;20033;-73
2023/12/03 02:20:17;;;;;;;51.08;24.23;;;2.70;99.90;;;;;;4161614;28;20391;-73
2023/12/03 02:22:18;;;;;;;51.33;23.95;;;2.70;99.90;;;;;;4136994;28;20029;-72
2023/12/03 02:24:18;;;;;;;45.30;23.35;;;2.70;99.90;;;;;;4162161;28;20041;-73
2023/12/03 02:26:19;;;;;;;45.75;22.65;;;2.70;99.90;;;;;;4171480;28;20033;-73
2023/12/03 02:28:19;;;;;;;44.58;23.90;;;2.70;99.90;;;;;;4169797;28;20033;-72
2023/12/03 02:30:20;;;;;;;47.40;22.40;;;2.70;99.90;;;;;;4145824;28;20038;-72
2023/12/03 02:32:21;;;;;;;45.90;22.83;;;2.70;99.90;;;;;;4167907;28;20037;-72
2023/12/03 02:34:22;;;;;;;50.65;24.05;;;2.70;99.90;;;;;;4169700;28;20195;-72
2023/12/03 02:36:22;;;;;;;51.50;24.70;;;2.60;99.90;;;;;;4168124;28;20045;-72
2023/12/03 02:38:23;;;;;;;49.80;22.85;;;2.70;99.90;;;;;;4161094;28;20041;-72
2023/12/03 02:40:23;;;;;;;44.75;22.40;;;2.70;99.90;;;;;;4167411;28;20097;-73
2023/12/03 02:42:24;;;;;;;43.85;20.75;;;2.60;99.90;;;;;;4150408;28;20077;-72
2023/12/03 02:44:24;;;;;;;43.50;22.50;;;2.70;99.90;;;;;;4166393;28;20087;-71
2023/12/03 02:46:25;;;;;;;44.97;22.73;;;2.70;99.90;;;;;;4170848;28;20037;-72
2023/12/03 02:48:26;;;;;;;47.95;23.20;;;2.70;99.90;;;;;;4171161;28;20029;-72
2023/12/03 02:50:26;;;;;;;44.45;22.20;;;2.70;99.90;;;;;;4149986;28;20061;-72
2023/12/03 02:52:27;;;;;;;44.30;21.48;;;2.70;99.90;;;;;;4172024;28;20487;-71
2023/12/03 02:54:28;;;;;;;38.53;20.25;;;2.70;99.90;;;;;;4150846;28;20029;-72
2023/12/03 02:56:31;;;;;;;42.10;20.75;;;2.70;99.90;;;;;;4145528;28;20061;-71
2023/12/03 02:58:33;;;;;;;43.22;21.70;;;2.60;99.90;;;;;;4162111;28;20336;-72
2023/12/03 03:00:34;;;;;;;44.28;21.58;;;2.60;99.90;;;;;;4166079;28;20041;-72
2023/12/03 03:02:38;;;;;;;46.03;22.17;;;2.60;99.90;;;;;;4148253;28;20029;-73
2023/12/03 03:04:38;;;;;;;41.40;21.80;;;2.70;99.90;;;;;;4155050;28;20065;-71
2023/12/03 03:06:39;;;;;;;39.50;20.83;;;2.60;99.90;;;;;;4166686;28;20398;-71
2023/12/03 03:08:39;;;;;;;43.55;21.65;;;2.60;99.90;;;;;;4161246;28;20044;-71
2023/12/03 03:10:40;;;;;;;41.70;21.05;;;2.70;99.90;;;;;;4170644;28;20124;-72
2023/12/03 03:12:40;;;;;;;36.72;20.30;;;2.60;99.90;;;;;;4150231;28;20025;-69
2023/12/03 03:14:41;;;;;;;39.42;20.75;;;2.60;99.90;;;;;;4151426;28;20045;-70
2023/12/03 03:16:42;;;;;;;40.08;21.77;;;2.60;99.90;;;;;;4169896;28;20124;-69
2023/12/03 03:18:42;;;;;;;45.63;21.25;;;2.60;99.90;;;;;;4164783;28;20037;-69
2023/12/03 03:20:43;;;;;;;40.03;19.52;;;2.60;99.90;;;;;;4171554;28;20067;-68
2023/12/03 03:22:43;;;;;;;42.85;20.85;;;2.60;99.90;;;;;;4167515;28;20110;-68
2023/12/03 03:24:44;;;;;;;42.65;20.60;;;2.60;99.90;;;;;;4169552;28;20037;-72
2023/12/03 03:26:44;;;;;;;40.42;20.63;;;2.60;99.90;;;;;;4167149;28;20026;-68
2023/12/03 03:28:45;;;;;;;37.05;19.15;;;2.60;99.90;;;;;;4163662;28;20479;-68
2023/12/03 03:30:45;;;;;;;37.00;17.85;;;2.60;99.90;;;;;;4167247;28;20521;-69
2023/12/03 03:32:46;;;;;;;44.90;21.70;;;2.60;99.90;;;;;;4167614;28;20444;-69
2023/12/03 03:34:47;;;;;;;37.42;20.42;;;2.70;99.90;;;;;;4172605;28;20143;-69
2023/12/03 03:36:47;;;;;;;35.88;19.25;;;2.70;99.90;;;;;;4151421;28;20037;-69
2023/12/03 03:38:49;;;;;;;37.47;20.08;;;2.70;99.90;;;;;;4167401;28;20045;-69
2023/12/03 03:40:49;;;;;;;34.53;19.02;;;2.70;99.90;;;;;;4167443;28;20580;-71
2023/12/03 03:42:50;;;;;;;37.17;19.25;;;2.60;99.90;;;;;;4171939;28;20040;-68
2023/12/03 03:44:50;;;;;;;39.33;20.23;;;2.70;99.90;;;;;;4172244;28;20025;-70
2023/12/03 03:46:51;;;;;;;38.58;20.30;;;2.60;99.90;;;;;;4145948;28;20038;-71
2023/12/03 03:48:52;;;;;;;43.72;21.65;;;2.60;99.90;;;;;;4169620;28;20037;-69
2023/12/03 03:50:52;;;;;;;46.17;22.70;;;2.60;99.90;;;;;;4166570;28;20406;-70
2023/12/03 03:52:53;;;;;;;44.85;22.60;;;2.60;99.90;;;;;;4169280;28;20473;-73
2023/12/03 03:54:53;;;;;;;43.47;22.13;;;2.60;99.90;;;;;;4150623;28;20030;-73
2023/12/03 03:56:54;;;;;;;42.58;20.45;;;2.60;99.90;;;;;;4147510;28;20030;-73
2023/12/03 03:58:55;;;;;;;36.15;19.30;;;2.60;99.90;;;;;;4149649;28;20053;-73
2023/12/03 04:00:55;;;;;;;40.25;20.38;;;2.60;99.90;;;;;;4152741;28;20542;-73
2023/12/03 04:02:56;;;;;;;44.42;21.65;;;2.60;99.90;;;;;;4146775;28;20073;-73
2023/12/03 04:04:57;;;;;;;39.15;20.20;;;2.60;99.90;;;;;;4165392;28;20040;-73
2023/12/03 04:06:57;;;;;;;41.13;21.33;;;2.60;99.90;;;;;;4163299;28;20563;-73
2023/12/03 04:08:58;;;;;;;43.47;22.30;;;2.50;99.90;;;;;;4168636;28;20438;-72
2023/12/03 04:11:04;;;;;;;36.65;19.33;;;2.60;99.90;;;;;;4170625;28;20091;-72
2023/12/03 04:13:04;;;;;;;38.35;19.67;;;2.50;99.90;;;;;;4172995;28;20502;-73
2023/12/03 04:15:05;;;;;;;42.83;20.17;;;2.50;99.90;;;;;;4172332;28;20041;-73
2023/12/03 04:17:08;;;;;;;41.65;21.30;;;2.60;99.90;;;;;;4169149;28;20044;-72
2023/12/03 04:19:09;;;;;;;40.22;20.42;;;2.50;99.90;;;;;;4149172;28;20046;-73
2023/12/03 04:21:16;;;;;;;41.97;20.58;;;2.50;99.90;;;;;;4171442;28;20037;-73
2023/12/03 04:23:16;;;;;;;42.90;20.55;;;2.50;99.90;;;;;;4166871;28;20071;-73
2023/12/03 04:25:17;;;;;;;39.22;21.35;;;2.50;99.90;;;;;;4170637;28;20041;-73
2023/12/03 04:27:17;;;;;;;42.75;20.33;;;2.60;99.90;;;;;;4166184;28;20036;-73
2023/12/03 04:29:18;;;;;;;42.90;21.05;;;2.60;99.90;;;;;;4169813;28;20568;-73
2023/12/03 04:31:25;;;;;;;39.97;19.13;;;2.60;99.90;;;;;;4169978;28;20450;-73
2023/12/03 04:33:25;;;;;;;39.00;19.27;;;2.60;99.90;;;;;;4169873;28;20029;-72
2023/12/03 04:35:26;;;;;;;41.85;20.38;;;2.60;99.90;;;;;;4171680;28;20457;-73
2023/12/03 04:37:26;;;;;;;41.92;20.35;;;2.50;99.90;;;;;;4172025;28;20419;-73
2023/12/03 04:39:28;;;;;;;38.85;19.70;;;2.60;99.90;;;;;;4150051;28;20030;-73
2023/12/03 04:41:36;;;;;;;43.28;20.55;;;2.60;99.90;;;;;;4168383;28;20037;-73
2023/12/03 04:43:37;;;;;;;38.25;20.35;;;2.50;99.90;;;;;;4164505;28;20090;-73
2023/12/03 04:45:37;;;;;;;39.97;19.27;;;2.60;99.90;;;;;;4169255;28;20495;-73
2023/12/03 04:47:38;;;;;;;43.78;20.90;;;2.60;99.90;;;;;;4171891;28;20485;-73
2023/12/03 04:49:38;;;;;;;40.15;20.10;;;2.50;99.90;;;;;;4172292;28;20037;-73
2023/12/03 04:51:39;;;;;;;41.55;21.02;;;2.50;99.90;;;;;;4171607;28;20040;-73
2023/12/03 04:53:40;;;;;;;39.35;20.00;;;2.50;99.90;;;;;;4173846;28;20029;-73
2023/12/03 04:55:40;;;;;;;39.08;19.13;;;2.50;99.90;;;;;;4168175;28;20029;-73
2023/12/03 04:57:41;;;;;;;37.70;18.65;;;2.50;99.90;;;;;;4163969;28;20057;-73
2023/12/03 04:59:41;;;;;;;36.25;18.27;;;2.50;99.90;;;;;;4166055;28;20086;-73
2023/12/03 05:01:42;;;;;;;37.80;18.70;;;2.50;99.90;;;;;;4168511;28;20025;-72
2023/12/03 05:03:43;;;;;;;34.05;17.67;;;2.50;99.90;;;;;;4168229;28;20057;-73
2023/12/03 05:05:43;;;;;;;35.25;18.20;;;2.50;99.90;;;;;;4170354;28;20112;-73
2023/12/03 05:07:44;;;;;;;36.35;18.90;;;2.50;99.90;;;;;;4154864;28;20033;-73
2023/12/03 05:09:44;;;;;;;37.15;18.90;;;2.50;99.90;;;;;;4168784;28;20037;-71
2023/12/03 05:11:45;;;;;;;36.45;17.45;;;2.60;99.90;;;;;;4163162;28;20049;-73
2023/12/03 05:13:46;;;;;;;34.42;17.77;;;2.60;99.90;;;;;;4151057;28;20037;-73
2023/12/03 05:15:46;;;;;;;33.38;16.38;;;2.60;99.90;;;;;;4171507;28;20027;-72
2023/12/03 05:17:47;;;;;;;33.08;16.40;;;2.60;99.90;;;;;;4168906;28;20029;-72
2023/12/03 05:19:47;;;;;;;32.92;16.88;;;2.60;99.90;;;;;;4172265;28;20029;-72
2023/12/03 05:21:48;;;;;;;34.22;17.55;;;2.60;99.90;;;;;;4167492;28;20112;-72
2023/12/03 05:23:49;;;;;;;38.47;17.35;;;2.70;99.90;;;;;;4171033;28;20479;-72
2023/12/03 05:25:49;;;;;;;35.20;17.27;;;2.70;99.90;;;;;;4170925;28;20556;-72
2023/12/03 05:27:50;;;;;;;32.63;16.45;;;2.60;99.90;;;;;;4170585;28;20132;-73
2023/12/03 05:29:50;;;;;;;31.88;16.42;;;2.70;99.90;;;;;;4165682;28;20095;-73
2023/12/03 05:31:51;;;;;;;34.17;17.10;;;2.70;99.90;;;;;;4169197;28;20376;-73
2023/12/03 05:33:51;;;;;;;35.42;17.63;;;2.70;99.90;;;;;;4150140;28;20403;-73
2023/12/03 05:35:52;;;;;;;32.25;15.82;;;2.70;99.90;;;;;;4151450;28;20033;-74
2023/12/03 05:37:53;;;;;;;34.40;17.30;;;2.70;99.90;;;;;;4170416;28;20379;-74
2023/12/03 05:39:53;;;;;;;30.42;16.20;;;2.70;99.90;;;;;;4167424;28;20414;-73
2023/12/03 05:41:54;;;;;;;31.75;15.25;;;2.70;99.90;;;;;;4168787;28;20040;-73
2023/12/03 05:43:54;;;;;;;32.05;15.60;;;2.70;99.90;;;;;;4171379;28;20029;-74
2023/12/03 05:45:55;;;;;;;34.28;15.93;;;2.70;99.90;;;;;;4167679;28;20029;-73
2023/12/03 05:47:56;;;;;;;32.58;15.48;;;2.70;99.90;;;;;;4166652;28;20021;-74
2023/12/03 05:49:59;;;;;;;34.08;16.77;;;2.70;99.90;;;;;;4168446;28;20059;-74
2023/12/03 05:52:00;;;;;;;31.00;15.73;;;2.70;99.90;;;;;;4165636;28;20029;-74
2023/12/03 05:54:00;;;;;;;33.10;16.17;;;2.70;99.90;;;;;;4171895;28;20025;-73
2023/12/03 05:56:01;;;;;;;31.48;16.55;;;2.70;99.90;;;;;;4168550;28;20029;-73
2023/12/03 05:58:02;;;;;;;32.22;15.73;;;2.70;99.90;;;;;;4170923;28;20563;-73
2023/12/03 06:00:03;;;;;;;32.08;16.73;;;2.70;99.90;;;;;;4172522;28;20393;-74
2023/12/03 06:02:04;;;;;;;28.65;15.10;;;2.70;99.90;;;;;;4170361;28;20086;-73
2023/12/03 06:04:08;;;;;;;33.55;15.27;;;2.70;99.90;;;;;;4153593;28;20038;-73
2023/12/03 06:06:08;;;;;;;34.08;16.70;;;2.70;99.90;;;;;;4174117;28;20515;-73
2023/12/03 06:08:09;;;;;;;29.65;15.43;;;2.70;99.90;;;;;;4165701;28;20083;-73
2023/12/03 06:10:10;;;;;;;30.42;14.95;;;2.70;99.90;;;;;;4169960;28;20041;-73
2023/12/03 06:12:10;;;;;;;31.10;15.55;;;2.70;99.90;;;;;;4171399;28;20033;-73
2023/12/03 06:14:11;;;;;;;30.92;15.85;;;2.70;99.90;;;;;;4165513;28;20026;-73
2023/12/03 06:16:11;;;;;;;34.58;15.95;;;2.70;99.90;;;;;;4152014;28;20037;-73
2023/12/03 06:18:12;;;;;;;34.60;16.63;;;2.70;99.90;;;;;;4166741;28;20032;-73
2023/12/03 06:20:13;;;;;;;32.08;16.25;;;2.70;99.90;;;;;;4149873;28;20056;-73
2023/12/03 06:22:13;;;;;;;31.73;16.30;;;2.70;99.90;;;;;;4168214;28;21468;-73
2023/12/03 06:24:14;;;;;;;33.08;15.38;;;2.70;99.90;;;;;;4151096;28;20128;-73
2023/12/03 06:26:14;;;;;;;33.40;16.08;;;2.70;99.90;;;;;;4166703;28;20045;-73
2023/12/03 06:28:15;;;;;;;28.05;14.57;;;2.70;99.90;;;;;;4169529;28;20403;-73
2023/12/03 06:30:17;;;;;;;29.13;14.65;;;2.70;99.90;;;;;;4167911;28;20091;-73
2023/12/03 06:32:18;;;;;;;30.77;14.73;;;2.70;99.90;;;;;;4166454;28;20049;-73
2023/12/03 06:34:18;;;;;;;30.58;15.40;;;2.70;99.90;;;;;;4168639;28;20762;-72
2023/12/03 06:36:19;;;;;;;32.13;14.90;;;2.70;99.90;;;;;;4170581;28;20051;-73
2023/12/03 06:38:19;;;;;;;33.33;15.77;;;2.70;99.90;;;;;;4147482;28;20030;-72
2023/12/03 06:40:20;;;;;;;31.83;15.18;;;2.70;99.90;;;;;;4169627;28;20033;-72
2023/12/03 06:42:21;;;;;;;29.80;15.48;;;2.70;99.90;;;;;;4172400;28;20057;-73
2023/12/03 06:44:21;;;;;;;30.85;15.93;;;2.60;99.90;;;;;;4169119;28;20095;-73
2023/12/03 06:46:22;;;;;;;30.55;15.77;;;2.60;99.90;;;;;;4169049;28;20461;-72
2023/12/03 06:48:23;;;;;;;27.25;14.15;;;2.60;99.90;;;;;;4168403;28;20769;-73
2023/12/03 06:50:24;;;;;;;31.70;15.95;;;2.60;99.90;;;;;;4131896;28;20120;-73
2023/12/03 06:52:24;;;;;;;29.50;14.98;;;2.60;99.90;;;;;;4168998;28;20577;-73
2023/12/03 06:54:25;;;;;;;32.63;16.27;;;2.60;99.90;;;;;;4148140;28;20037;-72
2023/12/03 06:56:25;;;;;;;30.80;15.20;;;2.60;99.90;;;;;;4155286;28;20041;-73
2023/12/03 06:58:26;;;;;;;32.53;14.93;;;2.60;99.90;;;;;;4157114;28;20037;-73
2023/12/03 07:00:27;;;;;;;28.55;14.65;;;2.50;99.90;;;;;;4161730;28;20130;-73
2023/12/03 07:02:27;;;;;;;29.90;14.77;;;2.60;99.90;;;;;;4128170;28;20041;-72
2023/12/03 07:04:28;;;;;;;33.90;16.15;;;2.50;99.90;;;;;;4168210;28;20131;-72
2023/12/03 07:06:28;;;;;;;37.67;16.52;;;2.40;99.90;;;;;;4162805;28;20036;-72
2023/12/03 07:08:29;;;;;;;35.85;16.35;;;2.40;99.90;;;;;;4170325;28;20122;-72
2023/12/03 07:10:30;;;;;;;27.95;14.50;;;2.40;99.90;;;;;;4165380;28;20427;-72
2023/12/03 07:12:30;;;;;;;31.85;15.48;;;2.40;99.90;;;;;;4169685;28;20044;-72
2023/12/03 07:14:31;;;;;;;30.48;15.07;;;2.40;99.90;;;;;;4147209;28;20427;-72
2023/12/03 07:16:35;;;;;;;30.05;14.88;;;2.30;99.90;;;;;;4146763;28;20045;-72
2023/12/03 07:18:36;;;;;;;31.58;15.95;;;2.30;99.90;;;;;;4149238;28;20029;-72
2023/12/03 07:20:36;;;;;;;33.47;15.55;;;2.40;99.90;;;;;;4148839;28;20471;-72
2023/12/03 07:22:39;;;;;;;29.63;14.85;;;2.30;99.90;;;;;;4150726;28;20495;-72
2023/12/03 07:24:40;;;;;;;35.35;15.57;;;2.30;99.90;;;;;;4166470;28;20120;-72
2023/12/03 07:26:44;;;;;;;28.73;14.80;;;2.30;99.90;;;;;;4166397;28;20029;-72
2023/12/03 07:28:45;;;;;;;31.95;15.45;;;2.30;99.90;;;;;;4164719;28;20045;-74
2023/12/03 07:30:45;;;;;;;29.63;15.73;;;2.30;99.90;;;;;;4149910;28;20045;-72
2023/12/03 07:32:46;;;;;;;28.90;14.75;;;2.30;99.90;;;;;;4170531;28;20044;-73
2023/12/03 07:34:46;;;;;;;33.08;15.90;;;2.30;99.90;;;;;;4168011;28;20534;-71
2023/12/03 07:36:47;;;;;;;29.60;14.60;;;2.30;99.90;;;;;;4161726;28;20125;-72
2023/12/03 07:38:48;;;;;;;34.50;16.90;;;2.30;99.90;;;;;;4126978;28;20112;-73
2023/12/03 07:40:49;;;;;;;27.40;13.52;;;2.30;99.90;;;;;;4141382;28;20045;-73
2023/12/03 07:42:49;;;;;;;29.33;14.45;;;2.30;99.90;;;;;;4170018;28;20113;-72
2023/12/03 07:44:50;;;;;;;30.70;14.13;;;2.30;99.90;;;;;;4169720;28;20029;-73
2023/12/03 07:46:53;;;;;;;30.08;14.50;;;2.30;99.90;;;;;;4147646;28;20570;-72
2023/12/03 07:48:53;;;;;;;30.48;15.43;;;2.20;99.90;;;;;;4166545;28;20068;-74
2023/12/03 07:50:54;;;;;;;32.40;15.35;;;2.20;99.90;;;;;;4169419;28;20449;-73
2023/12/03 07:52:55;;;;;;;32.58;15.10;;;2.20;99.90;;;;;;4173097;28;20041;-73
2023/12/03 07:54:55;;;;;;;29.95;15.10;;;2.30;99.90;;;;;;4145343;28;20594;-74
2023/12/03 07:56:56;;;;;;;28.25;14.98;;;2.20;99.90;;;;;;4164469;28;20164;-70
2023/12/03 07:58:57;;;;;;;33.35;15.70;;;2.20;99.90;;;;;;4169059;28;20033;-71
2023/12/03 08:01:00;;;;;;;29.42;14.65;;;2.30;99.90;;;;;;4166851;28;20082;-71
2023/12/03 08:03:01;;;;;;;28.50;14.07;;;2.20;99.90;;;;;;4170038;28;20483;-74
2023/12/03 08:05:01;;;;;;;27.42;14.77;;;2.20;99.90;;;;;;4169807;28;20040;-74
2023/12/03 08:07:02;;;;;;;29.50;14.48;;;2.30;99.90;;;;;;4168998;28;20117;-73
2023/12/03 08:09:02;;;;;;;29.02;15.25;;;2.40;99.90;;;;;;4165612;28;20075;-75
2023/12/03 08:11:03;;;;;;;27.95;14.15;;;2.60;99.90;;;;;;4170533;28;20103;-75
2023/12/03 08:13:04;;;;;;;27.33;14.55;;;2.70;99.90;;;;;;4154364;28;20076;-74
2023/12/03 08:15:05;;;;;;;31.15;16.10;;;2.60;99.90;;;;;;4166091;28;20033;-73
2023/12/03 08:17:11;;;;;;;31.98;15.63;;;2.70;99.90;;;;;;4169936;28;20033;-74
2023/12/03 08:19:12;;;;;;;28.98;14.60;;;2.70;99.90;;;;;;4165096;28;20040;-75
2023/12/03 08:21:13;;;;;;;30.98;15.20;;;2.70;99.90;;;;;;4169007;28;20052;-74
2023/12/03 08:23:14;;;;;;;28.63;15.02;;;2.70;99.90;;;;;;4139122;28;20034;-74
2023/12/03 08:25:14;;;;;;;26.45;14.27;;;2.70;99.90;;;;;;4172190;28;20136;-75
2023/12/03 08:27:15;;;;;;;29.90;14.63;;;2.70;99.90;;;;;;4170584;28;20040;-75
2023/12/03 08:29:16;;;;;;;28.10;14.88;;;2.70;99.90;;;;;;4164202;28;20075;-74
2023/12/03 08:31:17;;;;;;;28.85;15.02;;;2.70;99.90;;;;;;4168714;28;20021;-75
2023/12/03 08:33:18;;;;;;;31.80;15.15;;;2.70;99.90;;;;;;4151441;28;20632;-75
2023/12/03 08:35:18;;;;;;;30.98;15.55;;;2.70;99.90;;;;;;4169744;28;20017;-73
2023/12/03 08:37:22;;;;;;;25.70;13.23;;;2.70;99.90;;;;;;4172990;28;20037;-74
2023/12/03 08:39:23;;;;;;;30.52;15.02;;;2.70;99.90;;;;;;4136170;28;20050;-74
2023/12/03 08:41:24;;;;;;;30.08;15.38;;;2.70;99.90;;;;;;4173447;28;20039;-75
2023/12/03 08:43:24;;;;;;;32.70;16.30;;;2.70;99.90;;;;;;4170024;28;20059;-73
2023/12/03 08:45:25;;;;;;;28.77;14.98;;;2.80;99.90;;;;;;4168500;28;20041;-74
2023/12/03 08:47:26;;;;;;;31.92;15.50;;;2.70;99.90;;;;;;4170075;28;20053;-74
2023/12/03 08:49:26;;;;;;;29.17;14.88;;;2.70;99.90;;;;;;4150386;28;20092;-72
2023/12/03 08:51:27;;;;;;;31.33;14.63;;;2.70;99.90;;;;;;4167188;28;20041;-72
2023/12/03 08:53:28;;;;;;;27.00;14.10;;;2.70;99.90;;;;;;4171687;28;20478;-73
2023/12/03 08:55:29;;;;;;;30.52;14.60;;;2.70;99.90;;;;;;4171197;28;20150;-74
2023/12/03 08:57:29;;;;;;;25.67;13.38;;;2.70;99.90;;;;;;4132824;28;20038;-74
2023/12/03 08:59:30;;;;;;;27.40;14.27;;;2.70;99.90;;;;;;4170325;28;20063;-75
2023/12/03 09:01:30;;;;;;;28.20;14.57;;;2.70;99.90;;;;;;4168746;28;20056;-74
2023/12/03 09:03:31;;;;;;;27.65;13.75;;;2.70;99.90;;;;;;4151169;28;20026;-75
2023/12/03 09:05:32;;;;;;;25.58;12.88;;;2.70;99.90;;;;;;4169605;28;20399;-74
2023/12/03 09:07:33;;;;;;;27.23;14.13;;;2.80;99.90;;;;;;4171597;28;20061;-74
2023/12/03 09:09:33;;;;;;;27.50;14.48;;;2.80;99.90;;;;;;4165582;28;20041;-74
2023/12/03 09:11:35;;;;;;;27.58;13.75;;;2.80;99.90;;;;;;4152864;28;20034;-74
2023/12/03 09:13:36;;;;;;;26.40;13.68;;;2.80;99.90;;;;;;4173128;28;20037;-74
2023/12/03 09:15:36;;;;;;;24.60;12.90;;;2.90;99.90;;;;;;4167715;28;20540;-74
2023/12/03 09:17:37;;;;;;;26.15;13.20;;;3.00;99.90;;;;;;4167535;28;20499;-75
2023/12/03 09:19:37;;;;;;;25.83;12.98;;;3.10;99.90;;;;;;4166711;28;20144;-74
2023/12/03 09:21:38;;;;;;;24.92;12.18;;;3.30;99.90;;;;;;4162771;28;20222;-74
2023/12/03 09:23:39;;;;;;;26.33;13.73;;;3.40;99.90;;;;;;4166627;28;20037;-71
2023/12/03 09:25:40;;;;;;;25.30;13.65;;;3.50;99.90;;;;;;4172181;28;20608;-74
2023/12/03 09:27:41;;;;;;;25.42;12.90;;;3.50;99.90;;;;;;4170538;28;20125;-73
2023/12/03 09:29:41;;;;;;;25.00;13.02;;;3.70;99.90;;;;;;4166606;28;20036;-74
2023/12/03 09:31:42;;;;;;;26.88;12.98;;;3.80;99.90;;;;;;4168767;28;20060;-74
2023/12/03 09:33:44;;;;;;;23.65;12.30;;;3.90;99.90;;;;;;4149485;28;20117;-74
2023/12/03 09:35:44;;;;;;;26.33;13.07;;;4.00;99.90;;;;;;4149023;28;20067;-73
2023/12/03 09:37:45;;;;;;;28.02;13.20;;;4.20;99.90;;;;;;4151813;28;20596;-73
2023/12/03 09:39:46;;;;;;;22.65;12.10;;;4.20;99.90;;;;;;4147220;28;20076;-67
2023/12/03 09:41:53;;;;;;;25.77;12.95;;;4.30;99.90;;;;;;4167375;28;20444;-73
2023/12/03 09:43:59;;;;;;;27.10;14.60;;;4.40;99.90;;;;;;4168304;28;20073;-72
2023/12/03 09:46:00;;;;;;;25.38;13.57;;;4.40;99.90;;;;;;4169319;28;20041;-73
2023/12/03 09:48:03;;;;;;;25.33;13.32;;;4.50;99.90;;;;;;4169628;28;20048;-71
2023/12/03 09:50:04;;;;;;;23.75;12.48;;;4.40;99.90;;;;;;4166775;28;20049;-74
2023/12/03 09:52:08;;;;;;;22.80;12.30;;;4.50;99.90;;;;;;4169223;28;20037;-72
2023/12/03 09:54:09;;;;;;;20.13;11.45;;;4.60;99.90;;;;;;4148925;28;20041;-72
2023/12/03 09:56:11;;;;;;;22.45;12.48;;;4.60;99.90;;;;;;4148992;28;20487;-72
2023/12/03 09:58:15;;;;;;;25.45;12.77;;;4.60;99.90;;;;;;4168837;28;20041;-71
2023/12/03 10:00:17;;;;;;;23.38;13.20;;;4.60;99.90;;;;;;4169383;28;20040;-71
2023/12/03 10:02:21;;;;;;;25.05;13.07;;;4.70;99.90;;;;;;4165984;28;20045;-73
2023/12/03 10:04:21;;;;;;;27.52;13.20;;;4.70;99.90;;;;;;4164662;28;20128;-76
2023/12/03 10:06:24;;;;;;;25.55;12.88;;;4.70;99.90;;;;;;4168199;28;20566;-74
2023/12/03 10:08:25;;;;;;;24.75;13.75;;;4.80;99.90;;;;;;4168865;28;20082;-74
2023/12/03 10:10:33;;;;;;;23.77;12.48;;;4.90;99.90;;;;;;4164454;28;20049;-76
2023/12/03 10:12:41;;;;;;;24.08;12.88;;;4.90;99.90;;;;;;4167176;28;20029;-73
2023/12/03 10:14:42;;;;;;;24.55;12.40;;;4.90;99.90;;;;;;4171485;28;20032;-72
2023/12/03 10:16:50;;;;;;;23.67;12.70;;;4.90;99.90;;;;;;4170034;28;20065;-75
2023/12/03 10:18:51;;;;;;;21.63;11.32;;;4.90;99.90;;;;;;4166806;28;21338;-72
2023/12/03 10:21:10;;;;;;;26.65;13.55;;;5.00;99.90;;;;;;4148272;28;20644;-74
2023/12/03 10:23:15;;;;;;;25.65;13.38;;;5.00;99.90;;;;;;4169078;28;22164;-73